sensor_id;sensor_type;location;lat;lon;timestamp;pressure;altitude;pressure_sealevel;temperature;humidity
61014;BME280;46899;47.542;19.082;2023-10-19T00:00:49;100040.31;;;8.23;100.00
61014;BME280;46899;47.542;19.082;2023-10-19T00:03:53;100038.72;;;8.19;100.00
61014;BME280;46899;47.542;19.082;2023-10-19T00:06:58;100042.19;;;8.18;100.00
61014;BME280;46899;47.542;19.082;2023-10-19T00:10:01;100037.75;;;8.22;100.00
61014;BME280;46899;47.542;19.082;2023-10-19T00:13:06;100036.81;;;8.24;100.00
61014;BME280;46899;47.542;19.082;2023-10-19T00:16:11;100024.00;;;8.20;100.00
61014;BME280;46899;47.542;19.082;2023-10-19T00:19:19;100014.63;;;8.16;100.00
61014;BME280;46899;47.542;19.082;2023-10-19T00:22:23;100014.69;;;8.14;100.00
61014;BME280;46899;47.542;19.082;2023-10-19T00:25:27;100004.19;;;8.17;100.00
61014;BME280;46899;47.542;19.082;2023-10-19T00:28:30;100011.09;;;8.18;100.00
61014;BME280;46899;47.542;19.082;2023-10-19T00:31:37;99998.22;;;8.15;100.00
61014;BME280;46899;47.542;19.082;2023-10-19T00:34:43;99993.97;;;8.14;100.00
61014;BME280;46899;47.542;19.082;2023-10-19T00:37:54;99997.56;;;8.09;100.00
61014;BME280;46899;47.542;19.082;2023-10-19T00:41:01;99993.41;;;8.03;100.00
61014;BME280;46899;47.542;19.082;2023-10-19T00:44:12;99999.44;;;8.05;100.00
61014;BME280;46899;47.542;19.082;2023-10-19T00:47:19;99986.34;;;8.08;100.00
61014;BME280;46899;47.542;19.082;2023-10-19T00:50:22;99981.97;;;8.10;100.00
61014;BME280;46899;47.542;19.082;2023-10-19T00:53:30;99985.41;;;8.11;100.00
61014;BME280;46899;47.542;19.082;2023-10-19T00:56:35;99988.78;;;8.14;100.00
61014;BME280;46899;47.542;19.082;2023-10-19T00:59:39;99988.84;;;8.11;100.00
61014;BME280;46899;47.542;19.082;2023-10-19T01:02:46;99978.50;;;8.11;100.00
61014;BME280;46899;47.542;19.082;2023-10-19T01:05:49;99969.94;;;8.09;100.00
61014;BME280;46899;47.542;19.082;2023-10-19T01:08:53;99959.41;;;8.14;100.00
61014;BME280;46899;47.542;19.082;2023-10-19T01:11:55;99949.06;;;8.14;100.00
61014;BME280;46899;47.542;19.082;2023-10-19T01:15:15;99944.91;;;8.08;100.00
61014;BME280;46899;47.542;19.082;2023-10-19T01:18:23;99940.72;;;8.04;100.00
61014;BME280;46899;47.542;19.082;2023-10-19T01:21:35;99950.22;;;8.04;100.00
61014;BME280;46899;47.542;19.082;2023-10-19T01:24:41;99945.91;;;8.04;100.00
61014;BME280;46899;47.542;19.082;2023-10-19T01:27:45;99938.91;;;8.06;100.00
61014;BME280;46899;47.542;19.082;2023-10-19T01:30:48;99943.25;;;8.06;100.00
61014;BME280;46899;47.542;19.082;2023-10-19T01:33:58;99942.44;;;8.05;100.00
61014;BME280;46899;47.542;19.082;2023-10-19T01:37:02;99930.28;;;8.07;100.00
61014;BME280;46899;47.542;19.082;2023-10-19T01:40:08;99928.41;;;8.11;100.00
61014;BME280;46899;47.542;19.082;2023-10-19T01:43:15;99923.94;;;8.16;100.00
61014;BME280;46899;47.542;19.082;2023-10-19T01:46:23;99914.59;;;8.10;100.00
61014;BME280;46899;47.542;19.082;2023-10-19T01:49:27;99907.19;;;8.00;100.00
61014;BME280;46899;47.542;19.082;2023-10-19T01:52:30;99899.56;;;7.95;100.00
61014;BME280;46899;47.542;19.082;2023-10-19T01:55:37;99900.50;;;7.93;100.00
61014;BME280;46899;47.542;19.082;2023-10-19T01:58:41;99899.28;;;7.77;100.00
61014;BME280;46899;47.542;19.082;2023-10-19T02:01:44;99886.66;;;7.66;100.00
61014;BME280;46899;47.542;19.082;2023-10-19T02:04:48;99886.06;;;7.58;100.00
61014;BME280;46899;47.542;19.082;2023-10-19T02:07:54;99888.97;;;7.47;100.00
61014;BME280;46899;47.542;19.082;2023-10-19T02:10:57;99875.00;;;7.53;100.00
61014;BME280;46899;47.542;19.082;2023-10-19T02:14:00;99880.25;;;7.50;100.00
61014;BME280;46899;47.542;19.082;2023-10-19T02:17:07;99885.63;;;7.44;100.00
61014;BME280;46899;47.542;19.082;2023-10-19T02:20:12;99878.03;;;7.38;100.00
61014;BME280;46899;47.542;19.082;2023-10-19T02:23:40;99873.00;;;7.33;100.00
61014;BME280;46899;47.542;19.082;2023-10-19T02:26:49;99870.69;;;7.24;100.00
61014;BME280;46899;47.542;19.082;2023-10-19T02:29:54;99862.84;;;7.26;100.00
61014;BME280;46899;47.542;19.082;2023-10-19T02:32:57;99863.66;;;7.28;100.00
61014;BME280;46899;47.542;19.082;2023-10-19T02:36:00;99861.03;;;7.29;100.00
61014;BME280;46899;47.542;19.082;2023-10-19T02:39:08;99857.53;;;7.32;100.00
61014;BME280;46899;47.542;19.082;2023-10-19T02:42:12;99856.87;;;7.25;100.00
61014;BME280;46899;47.542;19.082;2023-10-19T02:45:15;99854.94;;;7.32;100.00
61014;BME280;46899;47.542;19.082;2023-10-19T02:48:18;99848.13;;;7.28;100.00
61014;BME280;46899;47.542;19.082;2023-10-19T02:51:21;99846.69;;;7.19;100.00
61014;BME280;46899;47.542;19.082;2023-10-19T02:54:24;99842.28;;;7.21;100.00
61014;BME280;46899;47.542;19.082;2023-10-19T02:57:27;99841.44;;;7.21;100.00
61014;BME280;46899;47.542;19.082;2023-10-19T03:00:30;99833.56;;;7.25;100.00
61014;BME280;46899;47.542;19.082;2023-10-19T03:03:36;99835.75;;;7.37;100.00
61014;BME280;46899;47.542;19.082;2023-10-19T03:06:39;99818.00;;;7.27;100.00
61014;BME280;46899;47.542;19.082;2023-10-19T03:09:43;99817.72;;;7.36;100.00
61014;BME280;46899;47.542;19.082;2023-10-19T03:12:52;99813.34;;;7.38;100.00
61014;BME280;46899;47.542;19.082;2023-10-19T03:15:56;99805.22;;;7.21;100.00
61014;BME280;46899;47.542;19.082;2023-10-19T03:19:00;99801.03;;;7.18;100.00
61014;BME280;46899;47.542;19.082;2023-10-19T03:22:03;99795.87;;;7.17;100.00
61014;BME280;46899;47.542;19.082;2023-10-19T03:25:09;99787.37;;;7.13;100.00
61014;BME280;46899;47.542;19.082;2023-10-19T03:28:30;99776.34;;;7.07;100.00
61014;BME280;46899;47.542;19.082;2023-10-19T03:31:40;99775.41;;;7.09;100.00
61014;BME280;46899;47.542;19.082;2023-10-19T03:34:46;99775.16;;;7.18;100.00
61014;BME280;46899;47.542;19.082;2023-10-19T03:37:50;99771.06;;;7.10;100.00
61014;BME280;46899;47.542;19.082;2023-10-19T03:40:54;99762.44;;;7.11;100.00
61014;BME280;46899;47.542;19.082;2023-10-19T03:44:02;99766.97;;;7.04;100.00
61014;BME280;46899;47.542;19.082;2023-10-19T03:47:06;99762.53;;;7.08;100.00
61014;BME280;46899;47.542;19.082;2023-10-19T03:50:14;99760.72;;;7.10;100.00
61014;BME280;46899;47.542;19.082;2023-10-19T03:53:23;99761.72;;;7.06;100.00
61014;BME280;46899;47.542;19.082;2023-10-19T03:56:26;99760.38;;;7.22;100.00
61014;BME280;46899;47.542;19.082;2023-10-19T03:59:28;99760.56;;;7.16;100.00
61014;BME280;46899;47.542;19.082;2023-10-19T04:02:35;99755.56;;;7.10;100.00
61014;BME280;46899;47.542;19.082;2023-10-19T04:05:41;99752.25;;;7.05;100.00
61014;BME280;46899;47.542;19.082;2023-10-19T04:08:44;99751.31;;;7.07;100.00
61014;BME280;46899;47.542;19.082;2023-10-19T04:11:53;99748.78;;;7.06;100.00
61014;BME280;46899;47.542;19.082;2023-10-19T04:14:55;99746.00;;;7.12;100.00
61014;BME280;46899;47.542;19.082;2023-10-19T04:18:18;99737.97;;;7.21;100.00
61014;BME280;46899;47.542;19.082;2023-10-19T04:21:21;99726.03;;;7.17;100.00
61014;BME280;46899;47.542;19.082;2023-10-19T04:24:24;99728.09;;;7.06;100.00
61014;BME280;46899;47.542;19.082;2023-10-19T04:27:27;99711.56;;;7.11;100.00
61014;BME280;46899;47.542;19.082;2023-10-19T04:30:31;99715.69;;;7.17;100.00
61014;BME280;46899;47.542;19.082;2023-10-19T04:33:35;99704.59;;;7.13;100.00
61014;BME280;46899;47.542;19.082;2023-10-19T04:36:39;99708.53;;;7.25;100.00
61014;BME280;46899;47.542;19.082;2023-10-19T04:39:42;99702.44;;;7.26;100.00
61014;BME280;46899;47.542;19.082;2023-10-19T04:42:46;99695.75;;;7.20;100.00
61014;BME280;46899;47.542;19.082;2023-10-19T04:45:49;99698.63;;;7.11;100.00
61014;BME280;46899;47.542;19.082;2023-10-19T04:48:51;99688.13;;;7.16;100.00
61014;BME280;46899;47.542;19.082;2023-10-19T04:51:54;99693.41;;;7.13;100.00
61014;BME280;46899;47.542;19.082;2023-10-19T04:54:57;99691.53;;;7.16;100.00
61014;BME280;46899;47.542;19.082;2023-10-19T04:58:00;99680.00;;;7.26;100.00
61014;BME280;46899;47.542;19.082;2023-10-19T05:01:03;99679.28;;;7.23;100.00
61014;BME280;46899;47.542;19.082;2023-10-19T05:04:07;99681.91;;;7.21;100.00
61014;BME280;46899;47.542;19.082;2023-10-19T05:07:11;99683.69;;;7.19;100.00
61014;BME280;46899;47.542;19.082;2023-10-19T05:10:19;99684.78;;;7.12;100.00
61014;BME280;46899;47.542;19.082;2023-10-19T05:13:24;99672.63;;;7.16;100.00
61014;BME280;46899;47.542;19.082;2023-10-19T05:16:28;99679.69;;;7.09;100.00
61014;BME280;46899;47.542;19.082;2023-10-19T05:19:31;99677.81;;;7.14;100.00
61014;BME280;46899;47.542;19.082;2023-10-19T05:22:36;99679.38;;;7.20;100.00
61014;BME280;46899;47.542;19.082;2023-10-19T05:25:40;99686.50;;;7.12;100.00
61014;BME280;46899;47.542;19.082;2023-10-19T05:28:42;99682.19;;;7.12;100.00
61014;BME280;46899;47.542;19.082;2023-10-19T05:31:46;99682.28;;;7.09;100.00
61014;BME280;46899;47.542;19.082;2023-10-19T05:34:49;99681.25;;;7.15;100.00
61014;BME280;46899;47.542;19.082;2023-10-19T05:37:53;99687.06;;;7.21;100.00
61014;BME280;46899;47.542;19.082;2023-10-19T05:40:57;99691.22;;;7.27;100.00
61014;BME280;46899;47.542;19.082;2023-10-19T05:44:00;99684.34;;;7.26;100.00
61014;BME280;46899;47.542;19.082;2023-10-19T05:47:03;99687.63;;;7.31;100.00
61014;BME280;46899;47.542;19.082;2023-10-19T05:50:06;99693.81;;;7.27;100.00
61014;BME280;46899;47.542;19.082;2023-10-19T05:53:09;99685.12;;;7.28;100.00
61014;BME280;46899;47.542;19.082;2023-10-19T05:56:12;99683.09;;;7.37;100.00
61014;BME280;46899;47.542;19.082;2023-10-19T05:59:14;99677.38;;;7.28;100.00
61014;BME280;46899;47.542;19.082;2023-10-19T06:02:18;99673.75;;;7.33;100.00
61014;BME280;46899;47.542;19.082;2023-10-19T06:05:31;99669.34;;;7.35;100.00
61014;BME280;46899;47.542;19.082;2023-10-19T06:08:34;99684.69;;;7.41;100.00
61014;BME280;46899;47.542;19.082;2023-10-19T06:11:37;99676.78;;;7.46;100.00
61014;BME280;46899;47.542;19.082;2023-10-19T06:14:44;99676.66;;;7.49;100.00
61014;BME280;46899;47.542;19.082;2023-10-19T06:17:48;99672.41;;;7.48;100.00
61014;BME280;46899;47.542;19.082;2023-10-19T06:20:51;99671.59;;;7.46;100.00
61014;BME280;46899;47.542;19.082;2023-10-19T06:23:57;99665.47;;;7.48;100.00
61014;BME280;46899;47.542;19.082;2023-10-19T06:27:00;99665.91;;;7.61;100.00
61014;BME280;46899;47.542;19.082;2023-10-19T06:30:03;99657.56;;;7.53;100.00
61014;BME280;46899;47.542;19.082;2023-10-19T06:33:06;99655.84;;;7.52;100.00
61014;BME280;46899;47.542;19.082;2023-10-19T06:36:09;99650.37;;;7.61;100.00
61014;BME280;46899;47.542;19.082;2023-10-19T06:39:12;99643.81;;;7.76;100.00
61014;BME280;46899;47.542;19.082;2023-10-19T06:42:16;99642.16;;;7.75;100.00
61014;BME280;46899;47.542;19.082;2023-10-19T06:45:19;99645.47;;;7.78;100.00
61014;BME280;46899;47.542;19.082;2023-10-19T06:48:22;99657.94;;;7.67;100.00
61014;BME280;46899;47.542;19.082;2023-10-19T06:51:25;99648.03;;;7.78;100.00
61014;BME280;46899;47.542;19.082;2023-10-19T06:54:29;99662.84;;;7.75;100.00
61014;BME280;46899;47.542;19.082;2023-10-19T06:57:32;99659.34;;;7.76;100.00
61014;BME280;46899;47.542;19.082;2023-10-19T07:00:35;99653.72;;;7.65;100.00
61014;BME280;46899;47.542;19.082;2023-10-19T07:03:48;99650.16;;;7.67;100.00
61014;BME280;46899;47.542;19.082;2023-10-19T07:06:56;99638.09;;;7.66;100.00
61014;BME280;46899;47.542;19.082;2023-10-19T07:09:59;99633.63;;;7.71;100.00
61014;BME280;46899;47.542;19.082;2023-10-19T07:13:02;99627.34;;;7.78;100.00
61014;BME280;46899;47.542;19.082;2023-10-19T07:16:05;99642.25;;;7.72;100.00
61014;BME280;46899;47.542;19.082;2023-10-19T07:19:12;99632.66;;;7.74;100.00
61014;BME280;46899;47.542;19.082;2023-10-19T07:22:15;99630.19;;;7.71;100.00
61014;BME280;46899;47.542;19.082;2023-10-19T07:25:20;99627.75;;;7.66;100.00
61014;BME280;46899;47.542;19.082;2023-10-19T07:28:24;99608.84;;;7.64;100.00
61014;BME280;46899;47.542;19.082;2023-10-19T07:31:29;99623.84;;;7.79;100.00
61014;BME280;46899;47.542;19.082;2023-10-19T07:34:32;99616.88;;;7.81;100.00
61014;BME280;46899;47.542;19.082;2023-10-19T07:37:36;99623.19;;;7.97;100.00
61014;BME280;46899;47.542;19.082;2023-10-19T07:40:41;99620.00;;;7.89;100.00
61014;BME280;46899;47.542;19.082;2023-10-19T07:43:44;99617.00;;;8.01;100.00
61014;BME280;46899;47.542;19.082;2023-10-19T07:46:47;99607.66;;;7.97;100.00
61014;BME280;46899;47.542;19.082;2023-10-19T07:49:50;99597.66;;;7.87;100.00
61014;BME280;46899;47.542;19.082;2023-10-19T07:52:54;99586.19;;;7.94;100.00
61014;BME280;46899;47.542;19.082;2023-10-19T07:55:57;99602.75;;;8.13;100.00
61014;BME280;46899;47.542;19.082;2023-10-19T07:59:00;99604.44;;;8.14;100.00
61014;BME280;46899;47.542;19.082;2023-10-19T08:02:03;99592.34;;;8.14;100.00
61014;BME280;46899;47.542;19.082;2023-10-19T08:05:08;99582.94;;;8.12;100.00
61014;BME280;46899;47.542;19.082;2023-10-19T08:08:11;99580.94;;;8.18;100.00
61014;BME280;46899;47.542;19.082;2023-10-19T08:11:15;99577.47;;;8.19;100.00
61014;BME280;46899;47.542;19.082;2023-10-19T08:14:19;99575.75;;;8.18;100.00
61014;BME280;46899;47.542;19.082;2023-10-19T08:17:22;99574.75;;;8.22;100.00
61014;BME280;46899;47.542;19.082;2023-10-19T08:20:26;99567.75;;;8.24;100.00
61014;BME280;46899;47.542;19.082;2023-10-19T08:23:35;99572.78;;;8.29;100.00
61014;BME280;46899;47.542;19.082;2023-10-19T08:26:39;99557.19;;;8.31;100.00
61014;BME280;46899;47.542;19.082;2023-10-19T08:29:42;99547.66;;;8.53;100.00
61014;BME280;46899;47.542;19.082;2023-10-19T08:32:45;99555.41;;;8.54;100.00
61014;BME280;46899;47.542;19.082;2023-10-19T08:35:55;99564.97;;;8.74;100.00
61014;BME280;46899;47.542;19.082;2023-10-19T08:38:59;99551.31;;;8.90;100.00
61014;BME280;46899;47.542;19.082;2023-10-19T08:42:08;99543.34;;;8.95;100.00
61014;BME280;46899;47.542;19.082;2023-10-19T08:45:13;99546.47;;;9.03;100.00
61014;BME280;46899;47.542;19.082;2023-10-19T08:48:17;99547.56;;;8.98;100.00
61014;BME280;46899;47.542;19.082;2023-10-19T08:51:19;99546.84;;;8.94;100.00
61014;BME280;46899;47.542;19.082;2023-10-19T08:54:25;99533.69;;;8.99;100.00
61014;BME280;46899;47.542;19.082;2023-10-19T08:57:29;99529.53;;;9.15;100.00
61014;BME280;46899;47.542;19.082;2023-10-19T09:00:43;99527.69;;;9.18;100.00
61014;BME280;46899;47.542;19.082;2023-10-19T09:03:50;99521.44;;;9.22;100.00
61014;BME280;46899;47.542;19.082;2023-10-19T09:06:54;99527.78;;;9.35;100.00
61014;BME280;46899;47.542;19.082;2023-10-19T09:09:57;99522.91;;;9.48;100.00
61014;BME280;46899;47.542;19.082;2023-10-19T09:13:03;99520.25;;;9.68;100.00
61014;BME280;46899;47.542;19.082;2023-10-19T09:16:07;99513.94;;;9.74;100.00
61014;BME280;46899;47.542;19.082;2023-10-19T09:19:10;99519.78;;;9.97;100.00
61014;BME280;46899;47.542;19.082;2023-10-19T09:22:13;99521.28;;;10.03;100.00
61014;BME280;46899;47.542;19.082;2023-10-19T09:25:25;99524.22;;;9.95;100.00
61014;BME280;46899;47.542;19.082;2023-10-19T09:28:28;99509.19;;;10.02;100.00
61014;BME280;46899;47.542;19.082;2023-10-19T09:31:31;99505.16;;;10.15;100.00
61014;BME280;46899;47.542;19.082;2023-10-19T09:34:34;99508.16;;;10.60;100.00
61014;BME280;46899;47.542;19.082;2023-10-19T09:37:38;99509.31;;;11.23;100.00
61014;BME280;46899;47.542;19.082;2023-10-19T09:40:42;99513.13;;;11.83;100.00
61014;BME280;46899;47.542;19.082;2023-10-19T09:43:49;99518.28;;;12.31;100.00
61014;BME280;46899;47.542;19.082;2023-10-19T09:46:56;99512.91;;;12.03;100.00
61014;BME280;46899;47.542;19.082;2023-10-19T09:50:01;99513.47;;;11.60;100.00
61014;BME280;46899;47.542;19.082;2023-10-19T09:53:04;99506.41;;;11.62;100.00
61014;BME280;46899;47.542;19.082;2023-10-19T09:56:16;99498.75;;;11.59;100.00
61014;BME280;46899;47.542;19.082;2023-10-19T09:59:36;99481.00;;;11.50;100.00
61014;BME280;46899;47.542;19.082;2023-10-19T10:02:43;99488.03;;;11.48;100.00
61014;BME280;46899;47.542;19.082;2023-10-19T10:05:49;99471.19;;;11.22;100.00
61014;BME280;46899;47.542;19.082;2023-10-19T10:08:52;99459.63;;;11.11;100.00
61014;BME280;46899;47.542;19.082;2023-10-19T10:11:55;99466.97;;;11.20;100.00
61014;BME280;46899;47.542;19.082;2023-10-19T10:15:00;99464.56;;;11.32;100.00
61014;BME280;46899;47.542;19.082;2023-10-19T10:18:15;99458.31;;;11.52;100.00
61014;BME280;46899;47.542;19.082;2023-10-19T10:21:20;99440.34;;;11.63;100.00
61014;BME280;46899;47.542;19.082;2023-10-19T10:24:25;99426.22;;;11.67;100.00
61014;BME280;46899;47.542;19.082;2023-10-19T10:27:27;99434.16;;;11.97;100.00
61014;BME280;46899;47.542;19.082;2023-10-19T10:30:33;99423.38;;;12.18;100.00
61014;BME280;46899;47.542;19.082;2023-10-19T10:33:40;99416.81;;;12.11;100.00
61014;BME280;46899;47.542;19.082;2023-10-19T10:36:58;99407.91;;;12.15;100.00
61014;BME280;46899;47.542;19.082;2023-10-19T10:40:06;99401.22;;;11.96;100.00
61014;BME280;46899;47.542;19.082;2023-10-19T10:43:09;99402.47;;;11.73;100.00
61014;BME280;46899;47.542;19.082;2023-10-19T10:46:13;99399.81;;;11.57;100.00
61014;BME280;46899;47.542;19.082;2023-10-19T10:49:15;99402.59;;;11.39;100.00
61014;BME280;46899;47.542;19.082;2023-10-19T10:52:29;99397.72;;;11.33;100.00
61014;BME280;46899;47.542;19.082;2023-10-19T10:55:34;99391.41;;;11.37;100.00
61014;BME280;46899;47.542;19.082;2023-10-19T10:58:37;99376.97;;;11.47;100.00
61014;BME280;46899;47.542;19.082;2023-10-19T11:01:39;99378.81;;;11.60;100.00
61014;BME280;46899;47.542;19.082;2023-10-19T11:04:44;99362.31;;;11.77;100.00
61014;BME280;46899;47.542;19.082;2023-10-19T11:11:12;99361.28;;;11.80;100.00
61014;BME280;46899;47.542;19.082;2023-10-19T11:14:15;99353.81;;;11.89;100.00
61014;BME280;46899;47.542;19.082;2023-10-19T11:17:18;99363.63;;;11.84;100.00
61014;BME280;46899;47.542;19.082;2023-10-19T11:20:23;99353.34;;;11.97;100.00
61014;BME280;46899;47.542;19.082;2023-10-19T11:23:39;99349.00;;;12.27;100.00
61014;BME280;46899;47.542;19.082;2023-10-19T11:26:43;99334.44;;;11.93;100.00
61014;BME280;46899;47.542;19.082;2023-10-19T11:29:57;99333.78;;;12.19;100.00
61014;BME280;46899;47.542;19.082;2023-10-19T11:33:01;99334.44;;;12.23;100.00
61014;BME280;46899;47.542;19.082;2023-10-19T11:36:04;99328.38;;;12.22;100.00
61014;BME280;46899;47.542;19.082;2023-10-19T11:39:07;99324.00;;;12.23;100.00
61014;BME280;46899;47.542;19.082;2023-10-19T11:42:14;99326.41;;;12.56;100.00
61014;BME280;46899;47.542;19.082;2023-10-19T11:45:18;99323.47;;;12.90;100.00
61014;BME280;46899;47.542;19.082;2023-10-19T11:48:20;99310.88;;;13.25;100.00
61014;BME280;46899;47.542;19.082;2023-10-19T11:51:24;99316.53;;;13.03;100.00
61014;BME280;46899;47.542;19.082;2023-10-19T11:54:27;99308.53;;;12.78;100.00
61014;BME280;46899;47.542;19.082;2023-10-19T11:57:31;99307.13;;;12.58;100.00
61014;BME280;46899;47.542;19.082;2023-10-19T12:00:33;99300.69;;;12.50;100.00
61014;BME280;46899;47.542;19.082;2023-10-19T12:03:36;99299.75;;;12.79;100.00
61014;BME280;46899;47.542;19.082;2023-10-19T12:06:40;99295.88;;;13.14;100.00
61014;BME280;46899;47.542;19.082;2023-10-19T12:09:43;99291.97;;;13.07;100.00
61014;BME280;46899;47.542;19.082;2023-10-19T12:12:47;99291.59;;;13.13;100.00
61014;BME280;46899;47.542;19.082;2023-10-19T12:16:03;99269.97;;;13.38;100.00
61014;BME280;46899;47.542;19.082;2023-10-19T12:19:07;99276.53;;;13.57;100.00
61014;BME280;46899;47.542;19.082;2023-10-19T12:22:10;99262.78;;;13.41;100.00
61014;BME280;46899;47.542;19.082;2023-10-19T12:25:14;99265.53;;;13.26;100.00
61014;BME280;46899;47.542;19.082;2023-10-19T12:28:18;99253.84;;;13.31;100.00
61014;BME280;46899;47.542;19.082;2023-10-19T12:31:21;99249.34;;;13.33;100.00
61014;BME280;46899;47.542;19.082;2023-10-19T12:34:26;99244.00;;;12.94;100.00
61014;BME280;46899;47.542;19.082;2023-10-19T12:37:33;99248.50;;;12.92;100.00
61014;BME280;46899;47.542;19.082;2023-10-19T12:40:36;99245.31;;;12.87;100.00
61014;BME280;46899;47.542;19.082;2023-10-19T12:43:40;99229.50;;;12.62;100.00
61014;BME280;46899;47.542;19.082;2023-10-19T12:46:43;99240.22;;;12.29;100.00
61014;BME280;46899;47.542;19.082;2023-10-19T12:49:46;99234.59;;;12.35;100.00
61014;BME280;46899;47.542;19.082;2023-10-19T12:52:49;99224.19;;;12.35;100.00
61014;BME280;46899;47.542;19.082;2023-10-19T12:55:52;99214.19;;;12.42;100.00
61014;BME280;46899;47.542;19.082;2023-10-19T12:58:55;99214.94;;;12.44;100.00
61014;BME280;46899;47.542;19.082;2023-10-19T13:01:58;99214.75;;;12.32;100.00
61014;BME280;46899;47.542;19.082;2023-10-19T13:05:01;99221.38;;;12.38;100.00
61014;BME280;46899;47.542;19.082;2023-10-19T13:08:13;99209.19;;;12.39;100.00
61014;BME280;46899;47.542;19.082;2023-10-19T13:11:17;99208.53;;;12.35;100.00
61014;BME280;46899;47.542;19.082;2023-10-19T13:14:21;99197.16;;;12.36;100.00
61014;BME280;46899;47.542;19.082;2023-10-19T13:17:24;99194.84;;;12.46;100.00
61014;BME280;46899;47.542;19.082;2023-10-19T13:20:28;99189.81;;;12.57;100.00
61014;BME280;46899;47.542;19.082;2023-10-19T13:23:37;99188.09;;;12.56;100.00
61014;BME280;46899;47.542;19.082;2023-10-19T13:26:39;99181.09;;;12.70;100.00
61014;BME280;46899;47.542;19.082;2023-10-19T13:29:45;99185.13;;;12.76;100.00
61014;BME280;46899;47.542;19.082;2023-10-19T13:32:49;99178.09;;;12.90;100.00
61014;BME280;46899;47.542;19.082;2023-10-19T13:35:52;99174.97;;;12.98;100.00
61014;BME280;46899;47.542;19.082;2023-10-19T13:38:55;99175.28;;;12.93;100.00
61014;BME280;46899;47.542;19.082;2023-10-19T13:41:58;99175.97;;;12.83;100.00
61014;BME280;46899;47.542;19.082;2023-10-19T13:45:01;99174.41;;;12.66;100.00
61014;BME280;46899;47.542;19.082;2023-10-19T13:48:05;99166.88;;;12.62;100.00
61014;BME280;46899;47.542;19.082;2023-10-19T13:51:08;99168.53;;;12.63;100.00
61014;BME280;46899;47.542;19.082;2023-10-19T13:54:18;99160.16;;;12.58;100.00
61014;BME280;46899;47.542;19.082;2023-10-19T13:57:20;99159.62;;;12.53;100.00
61014;BME280;46899;47.542;19.082;2023-10-19T14:00:25;99161.28;;;12.40;100.00
61014;BME280;46899;47.542;19.082;2023-10-19T14:03:38;99157.84;;;12.39;100.00
61014;BME280;46899;47.542;19.082;2023-10-19T14:06:41;99157.66;;;12.28;100.00
61014;BME280;46899;47.542;19.082;2023-10-19T14:09:46;99157.78;;;12.26;100.00
61014;BME280;46899;47.542;19.082;2023-10-19T14:12:49;99151.03;;;12.08;100.00
61014;BME280;46899;47.542;19.082;2023-10-19T14:15:56;99151.97;;;11.93;100.00
61014;BME280;46899;47.542;19.082;2023-10-19T14:18:58;99148.41;;;11.94;100.00
61014;BME280;46899;47.542;19.082;2023-10-19T14:22:01;99146.59;;;11.96;100.00
61014;BME280;46899;47.542;19.082;2023-10-19T14:25:06;99157.00;;;11.82;100.00
61014;BME280;46899;47.542;19.082;2023-10-19T14:28:10;99146.81;;;11.92;100.00
61014;BME280;46899;47.542;19.082;2023-10-19T14:31:15;99144.78;;;11.83;100.00
61014;BME280;46899;47.542;19.082;2023-10-19T14:34:19;99136.50;;;11.90;100.00
61014;BME280;46899;47.542;19.082;2023-10-19T14:37:22;99126.91;;;11.77;100.00
61014;BME280;46899;47.542;19.082;2023-10-19T14:40:26;99119.25;;;11.74;100.00
61014;BME280;46899;47.542;19.082;2023-10-19T14:43:30;99120.38;;;11.70;100.00
61014;BME280;46899;47.542;19.082;2023-10-19T14:46:33;99130.09;;;11.66;100.00
61014;BME280;46899;47.542;19.082;2023-10-19T14:49:36;99133.56;;;11.66;100.00
61014;BME280;46899;47.542;19.082;2023-10-19T14:52:49;99120.62;;;11.65;100.00
61014;BME280;46899;47.542;19.082;2023-10-19T14:55:56;99123.56;;;11.59;100.00
61014;BME280;46899;47.542;19.082;2023-10-19T14:59:04;99117.28;;;11.63;100.00
61014;BME280;46899;47.542;19.082;2023-10-19T15:02:07;99112.88;;;11.63;100.00
61014;BME280;46899;47.542;19.082;2023-10-19T15:05:15;99104.53;;;11.58;100.00
61014;BME280;46899;47.542;19.082;2023-10-19T15:08:22;99105.34;;;11.59;100.00
61014;BME280;46899;47.542;19.082;2023-10-19T15:11:31;99098.28;;;11.61;100.00
61014;BME280;46899;47.542;19.082;2023-10-19T15:14:34;99103.06;;;11.68;100.00
61014;BME280;46899;47.542;19.082;2023-10-19T15:17:38;99103.00;;;11.70;100.00
61014;BME280;46899;47.542;19.082;2023-10-19T15:21:07;99098.09;;;11.64;100.00
61014;BME280;46899;47.542;19.082;2023-10-19T15:24:11;99089.53;;;11.62;100.00
61014;BME280;46899;47.542;19.082;2023-10-19T15:27:16;99093.44;;;11.55;100.00
61014;BME280;46899;47.542;19.082;2023-10-19T15:30:21;99084.88;;;11.53;100.00
61014;BME280;46899;47.542;19.082;2023-10-19T15:33:26;99080.03;;;11.47;100.00
61014;BME280;46899;47.542;19.082;2023-10-19T15:36:37;99070.81;;;11.41;100.00
61014;BME280;46899;47.542;19.082;2023-10-19T15:39:39;99073.31;;;11.43;100.00
61014;BME280;46899;47.542;19.082;2023-10-19T15:42:43;99071.06;;;11.37;100.00
61014;BME280;46899;47.542;19.082;2023-10-19T15:45:46;99067.62;;;11.36;100.00
61014;BME280;46899;47.542;19.082;2023-10-19T15:48:51;99055.44;;;11.37;100.00
61014;BME280;46899;47.542;19.082;2023-10-19T15:51:54;99049.50;;;11.35;100.00
61014;BME280;46899;47.542;19.082;2023-10-19T15:54:57;99048.09;;;11.29;100.00
61014;BME280;46899;47.542;19.082;2023-10-19T15:58:00;99052.00;;;11.36;100.00
61014;BME280;46899;47.542;19.082;2023-10-19T16:01:03;99054.03;;;11.31;100.00
61014;BME280;46899;47.542;19.082;2023-10-19T16:04:09;99062.41;;;11.36;100.00